createdAt,value
2018-07-24T00:01:27.862Z,16.83
2018-07-24T00:03:57.869Z,16.78
2018-07-24T00:06:26.940Z,16.74
2018-07-24T00:08:55.999Z,16.71
2018-07-24T00:11:36.025Z,16.67
2018-07-24T00:14:05.103Z,16.60
2018-07-24T00:16:34.170Z,16.62
2018-07-24T00:19:03.263Z,16.62
2018-07-24T00:21:32.329Z,16.58
2018-07-24T00:24:03.304Z,16.54
2018-07-24T00:26:32.386Z,16.53
2018-07-24T00:31:37.243Z,16.56
2018-07-24T00:39:17.961Z,16.42
2018-07-24T00:44:22.906Z,16.46
2018-07-24T00:47:06.281Z,16.42
2018-07-24T00:49:48.366Z,16.38
2018-07-24T00:52:17.437Z,16.32
2018-07-24T00:54:46.514Z,16.30
2018-07-24T00:57:15.604Z,16.35
2018-07-24T00:59:46.674Z,16.31
2018-07-24T01:02:23.617Z,16.23
2018-07-24T01:05:03.458Z,16.10
2018-07-24T01:07:33.478Z,16.01
2018-07-24T01:10:03.503Z,16.02
2018-07-24T01:12:33.529Z,15.86
2018-07-24T01:15:02.605Z,15.83
2018-07-24T01:17:31.671Z,15.83
2018-07-24T01:20:00.741Z,15.74
2018-07-24T01:22:29.817Z,15.68
2018-07-24T01:24:59.837Z,15.72
2018-07-24T01:30:04.613Z,15.76
2018-07-24T01:35:09.464Z,15.81
2018-07-24T01:37:42.853Z,15.79
2018-07-24T01:40:15.419Z,15.80
2018-07-24T01:42:44.505Z,15.78
2018-07-24T01:47:49.308Z,15.74
2018-07-24T01:52:54.213Z,15.69
2018-07-24T01:57:58.997Z,15.64
2018-07-24T02:03:03.847Z,15.75
2018-07-24T02:05:33.846Z,15.82
2018-07-24T02:08:02.907Z,15.69
2018-07-24T02:14:33.627Z,15.68
2018-07-24T02:17:03.690Z,15.72
2018-07-24T02:19:33.676Z,15.69
2018-07-24T02:22:03.725Z,15.66
2018-07-24T02:24:42.330Z,15.68
2018-07-24T02:27:12.313Z,15.64
2018-07-24T02:29:41.494Z,15.67
2018-07-24T02:32:10.727Z,15.66
2018-07-24T02:34:40.833Z,15.68
2018-07-24T02:37:09.899Z,15.63
2018-07-24T02:39:45.054Z,15.64
2018-07-24T02:42:14.119Z,15.66
2018-07-24T02:44:43.281Z,15.63
2018-07-24T02:47:12.358Z,15.63
2018-07-24T02:49:41.404Z,15.64
2018-07-24T02:52:10.459Z,15.61
2018-07-24T02:54:40.538Z,15.60
2018-07-24T02:57:09.613Z,15.58
2018-07-24T02:59:38.731Z,15.56
2018-07-24T03:04:43.502Z,15.55
2018-07-24T03:07:14.546Z,15.56
2018-07-24T03:09:43.819Z,15.49
2018-07-24T03:14:49.617Z,15.48
2018-07-24T03:17:19.685Z,15.39
2018-07-24T03:19:48.755Z,15.39
2018-07-24T03:24:53.607Z,15.45
2018-07-24T03:29:58.455Z,15.27
2018-07-24T03:32:27.523Z,15.33
2018-07-24T03:34:57.541Z,15.22
2018-07-24T03:37:28.598Z,15.09
2018-07-24T03:39:57.658Z,15.06
2018-07-24T03:42:26.814Z,15.02
2018-07-24T03:47:31.661Z,15.01
2018-07-24T03:50:01.721Z,15.05
2018-07-24T03:52:30.774Z,15.00
2018-07-24T03:55:00.794Z,15.03
2018-07-24T03:57:29.865Z,15.00
2018-07-24T04:00:10.142Z,14.80
2018-07-24T04:02:39.232Z,14.73
2018-07-24T04:10:23.785Z,14.87
2018-07-24T04:12:52.868Z,14.83
2018-07-24T04:15:21.933Z,14.95
2018-07-24T04:17:51.077Z,15.02
2018-07-24T04:22:57.911Z,15.08
2018-07-24T04:25:27.958Z,15.03
2018-07-24T04:27:57.196Z,14.97
2018-07-24T04:30:26.463Z,14.91
2018-07-24T04:35:31.824Z,15.00
2018-07-24T04:38:01.846Z,15.04
2018-07-24T04:40:42.832Z,15.14
2018-07-24T04:43:19.886Z,15.22
2018-07-24T04:51:08.073Z,15.59
2018-07-24T04:53:37.376Z,15.65
2018-07-24T04:56:06.822Z,15.71
2018-07-24T04:58:35.882Z,15.79
2018-07-24T05:01:04.986Z,15.96
2018-07-24T05:03:45.540Z,15.99
2018-07-24T05:08:50.305Z,16.18
2018-07-24T05:16:31.014Z,16.58
2018-07-24T05:19:03.273Z,16.61
2018-07-24T05:21:34.309Z,16.57
2018-07-24T05:24:05.341Z,16.65
2018-07-24T05:26:34.581Z,16.67
2018-07-24T05:29:12.482Z,16.70
2018-07-24T05:34:21.142Z,16.94
2018-07-24T05:36:50.544Z,17.16
2018-07-24T05:39:19.709Z,17.32
2018-07-24T05:41:49.728Z,17.28
2018-07-24T05:44:19.989Z,17.25
2018-07-24T05:46:49.174Z,17.37
2018-07-24T05:49:18.278Z,17.44
2018-07-24T05:54:24.149Z,17.57
2018-07-24T05:56:53.216Z,17.81
2018-07-24T05:59:22.304Z,17.76
2018-07-24T06:01:51.846Z,17.81
2018-07-24T06:04:24.837Z,17.85
2018-07-24T06:09:29.789Z,18.13
2018-07-24T06:11:59.286Z,18.23
2018-07-24T06:14:31.081Z,18.31
2018-07-24T06:17:07.771Z,18.33
2018-07-24T06:19:38.098Z,18.38
2018-07-24T06:22:07.337Z,18.51
2018-07-24T06:24:36.422Z,18.75
2018-07-24T06:27:05.500Z,18.82
2018-07-24T06:29:35.101Z,18.84
2018-07-24T06:32:04.213Z,18.74
2018-07-24T06:34:35.208Z,18.86
2018-07-24T06:37:14.172Z,19.03
2018-07-24T06:39:43.475Z,19.25
2018-07-24T06:47:24.065Z,19.67
2018-07-24T06:49:54.409Z,19.50
2018-07-24T06:52:23.465Z,19.54
2018-07-24T06:54:56.797Z,19.58
2018-07-24T06:57:26.881Z,19.60
2018-07-24T06:59:57.936Z,19.77
2018-07-24T07:02:27.216Z,19.85
2018-07-24T07:07:32.049Z,20.19
2018-07-24T07:10:01.326Z,20.34
2018-07-24T07:12:30.403Z,20.52
2018-07-24T07:14:59.452Z,20.67
2018-07-24T07:17:29.806Z,20.80
2018-07-24T07:19:59.085Z,20.93
2018-07-24T07:22:28.121Z,21.03
2018-07-24T07:27:32.981Z,21.23
2018-07-24T07:30:02.053Z,21.43
2018-07-24T07:32:31.515Z,21.48
2018-07-24T07:37:37.022Z,21.49
2018-07-24T07:40:06.041Z,21.70
2018-07-24T07:45:10.986Z,21.97
2018-07-24T07:47:40.022Z,22.07
2018-07-24T07:50:10.002Z,22.16
2018-07-24T07:52:46.989Z,22.25
2018-07-24T07:57:52.092Z,22.44
2018-07-24T08:00:21.130Z,22.67
2018-07-24T08:02:50.193Z,22.74
2018-07-24T08:05:19.534Z,22.99
2018-07-24T08:10:24.414Z,23.35
2018-07-24T08:12:53.463Z,23.33
2018-07-24T08:17:58.269Z,23.57
2018-07-24T08:20:27.344Z,23.88
2018-07-24T08:25:35.770Z,24.37
2018-07-24T08:28:05.836Z,24.41
2018-07-24T08:30:38.270Z,24.36
2018-07-24T08:38:19.926Z,25.01
2018-07-24T08:40:48.980Z,25.18
2018-07-24T08:43:18.041Z,24.91
2018-07-24T08:45:47.106Z,25.01
2018-07-24T08:48:16.663Z,25.17
2018-07-24T08:53:22.020Z,25.19
2018-07-24T08:55:50.846Z,25.44
2018-07-24T08:58:19.902Z,25.31
2018-07-24T09:00:48.966Z,25.69
2018-07-24T09:05:55.352Z,26.32
2018-07-24T09:08:25.566Z,25.91
2018-07-24T09:10:54.712Z,26.17
2018-07-24T09:13:24.713Z,26.37
2018-07-24T09:15:53.809Z,26.49
2018-07-24T09:18:24.843Z,26.46
2018-07-24T09:20:55.929Z,26.59
2018-07-24T09:23:24.940Z,27.09
2018-07-24T09:28:29.999Z,27.98
2018-07-24T09:30:59.165Z,28.74
2018-07-24T09:33:30.177Z,29.39
2018-07-24T09:35:59.241Z,29.96
2018-07-24T09:38:28.378Z,31.59
2018-07-24T09:40:57.439Z,31.32
2018-07-24T09:43:26.485Z,32.02
2018-07-24T09:45:55.919Z,31.74
2018-07-24T09:48:24.938Z,33.32
2018-07-24T09:50:53.988Z,34.60
2018-07-24T09:53:23.277Z,33.58
2018-07-24T09:55:52.377Z,33.60
2018-07-24T09:58:21.433Z,33.80
2018-07-24T10:00:51.407Z,33.81
2018-07-24T10:03:21.731Z,32.47
2018-07-24T10:05:50.784Z,33.09
2018-07-24T10:10:55.919Z,33.69
2018-07-24T10:16:00.366Z,32.70
2018-07-24T10:21:05.199Z,36.35
2018-07-24T10:23:34.265Z,36.25
2018-07-24T10:26:04.297Z,37.87
2018-07-24T10:28:33.628Z,35.29
2018-07-24T10:31:03.690Z,35.24
2018-07-24T10:36:08.713Z,35.27
2018-07-24T10:38:37.779Z,34.95
2018-07-24T10:41:06.798Z,35.50
2018-07-24T10:43:35.888Z,34.37
2018-07-24T10:48:41.062Z,35.16
2018-07-24T10:51:10.093Z,33.54
2018-07-24T10:53:39.160Z,34.47
2018-07-24T10:56:12.337Z,37.60
2018-07-24T11:03:55.833Z,36.28
2018-07-24T11:09:01.581Z,36.31
2018-07-24T11:11:30.828Z,36.53
2018-07-24T11:16:35.894Z,35.26
2018-07-24T11:19:04.872Z,33.40
2018-07-24T11:21:33.946Z,34.88
2018-07-24T11:24:03.306Z,35.47
2018-07-24T11:26:32.429Z,36.75
2018-07-24T11:29:01.471Z,34.39
2018-07-24T11:34:06.084Z,40.06
2018-07-24T11:36:36.491Z,38.46
2018-07-24T11:39:05.541Z,38.68
2018-07-24T11:44:10.255Z,38.09
2018-07-24T11:46:39.311Z,36.76
2018-07-24T11:49:08.445Z,39.46
2018-07-24T11:51:37.557Z,36.80
2018-07-24T11:54:06.567Z,40.12
2018-07-24T11:59:11.308Z,42.53
2018-07-24T12:01:40.656Z,41.40
2018-07-24T12:04:09.875Z,42.21
2018-07-24T12:09:16.701Z,42.06
2018-07-24T12:11:45.995Z,36.56
2018-07-24T12:14:15.033Z,39.07
2018-07-24T12:16:44.102Z,41.83
2018-07-24T12:19:13.761Z,42.50
2018-07-24T12:21:42.814Z,43.76
2018-07-24T12:24:11.869Z,42.23
2018-07-24T12:26:41.238Z,41.77
2018-07-24T12:29:10.335Z,40.19
2018-07-24T12:31:43.171Z,36.68
2018-07-24T12:34:14.250Z,34.02
2018-07-24T12:36:46.359Z,33.64
2018-07-24T12:39:15.417Z,36.73
2018-07-24T12:41:45.753Z,36.95
2018-07-24T12:46:50.562Z,36.80
2018-07-24T12:51:55.960Z,37.40
2018-07-24T12:54:25.230Z,41.46
2018-07-24T12:56:54.281Z,43.77
2018-07-24T12:59:23.341Z,40.73
2018-07-24T13:01:52.677Z,41.67
2018-07-24T13:04:21.738Z,37.63
2018-07-24T13:06:50.789Z,41.05
2018-07-24T13:09:21.793Z,38.70
2018-07-24T13:11:52.408Z,40.32
2018-07-24T13:14:21.549Z,42.79
2018-07-24T13:16:50.588Z,43.00
2018-07-24T13:21:55.607Z,40.62
2018-07-24T13:27:00.492Z,39.83
2018-07-24T13:29:30.457Z,41.09
2018-07-24T13:32:00.101Z,41.11
2018-07-24T13:34:29.343Z,42.19
2018-07-24T13:36:58.383Z,39.76
2018-07-24T13:39:28.405Z,39.61
2018-07-24T13:41:57.683Z,40.19
2018-07-24T13:44:26.737Z,40.01
2018-07-24T13:49:33.963Z,35.73
2018-07-24T13:54:46.005Z,38.21
2018-07-24T13:57:15.475Z,40.35
2018-07-24T13:59:44.556Z,44.11
2018-07-24T14:04:49.411Z,43.61
2018-07-24T14:07:18.490Z,45.87
2018-07-24T14:09:47.535Z,41.48
2018-07-24T14:12:17.598Z,42.72
2018-07-24T14:14:46.655Z,39.80
2018-07-24T14:17:15.795Z,36.53
2018-07-24T14:19:44.851Z,37.02
2018-07-24T14:22:13.911Z,40.55
2018-07-24T14:27:19.825Z,43.56
2018-07-24T14:29:48.869Z,43.15
2018-07-24T14:32:19.293Z,41.61
2018-07-24T14:34:50.822Z,43.56
2018-07-24T14:37:19.872Z,43.43
2018-07-24T14:39:50.893Z,43.12
2018-07-24T14:42:21.937Z,41.91
2018-07-24T14:44:50.995Z,42.38
2018-07-24T14:47:20.222Z,43.55
2018-07-24T14:49:49.268Z,43.35
2018-07-24T14:52:18.471Z,44.82
2018-07-24T14:54:47.608Z,41.48
2018-07-24T14:57:17.268Z,43.42
2018-07-24T14:59:46.327Z,44.30
2018-07-24T15:02:15.377Z,45.34
2018-07-24T15:04:45.597Z,46.13
2018-07-24T15:07:16.684Z,43.80
2018-07-24T15:09:45.740Z,43.76
2018-07-24T15:12:16.765Z,45.42
2018-07-24T15:14:47.804Z,46.37
2018-07-24T15:17:16.861Z,44.94
2018-07-24T15:19:47.085Z,41.68
2018-07-24T15:22:17.059Z,41.57
2018-07-24T15:24:48.094Z,41.27
2018-07-24T15:27:17.190Z,40.76
2018-07-24T15:29:48.245Z,41.48
2018-07-24T15:32:17.412Z,43.21
2018-07-24T15:34:46.756Z,40.50
2018-07-24T15:37:15.754Z,44.45
2018-07-24T15:39:44.812Z,42.11
2018-07-24T15:42:14.319Z,44.46
2018-07-24T15:44:43.361Z,44.75
2018-07-24T15:47:12.449Z,46.41
2018-07-24T15:49:49.934Z,45.24
2018-07-24T15:52:19.967Z,46.60
2018-07-24T15:54:49.976Z,48.31
2018-07-24T15:57:19.073Z,47.31
2018-07-24T15:59:48.301Z,45.59
2018-07-24T16:02:18.357Z,46.45
2018-07-24T16:04:47.402Z,46.50
2018-07-24T16:07:16.490Z,45.10
2018-07-24T16:09:46.702Z,45.53
2018-07-24T16:12:16.047Z,46.12
2018-07-24T16:14:47.085Z,46.37
2018-07-24T16:17:18.137Z,44.46
2018-07-24T16:19:47.180Z,43.26
2018-07-24T16:22:16.392Z,43.73
2018-07-24T16:24:45.455Z,45.54
2018-07-24T16:27:14.503Z,43.85
2018-07-24T16:29:43.545Z,40.71
2018-07-24T16:32:12.734Z,37.53
2018-07-24T16:34:45.821Z,35.86
2018-07-24T16:37:17.191Z,35.67
2018-07-24T16:42:22.042Z,34.32
2018-07-24T16:44:52.108Z,33.83
2018-07-24T16:47:21.192Z,32.17
2018-07-24T16:49:50.236Z,32.44
2018-07-24T16:52:20.255Z,31.57
2018-07-24T16:54:49.941Z,31.14
2018-07-24T16:57:23.383Z,30.75
2018-07-24T16:59:54.568Z,30.28
2018-07-24T17:02:23.672Z,29.89
2018-07-24T17:04:52.701Z,29.83
2018-07-24T17:07:21.760Z,30.28
2018-07-24T17:09:50.836Z,30.25
2018-07-24T17:12:19.867Z,29.46
2018-07-24T17:14:48.927Z,29.32
2018-07-24T17:17:18.086Z,28.76
2018-07-24T17:19:47.617Z,28.69
2018-07-24T17:22:20.072Z,28.80
2018-07-24T17:24:49.123Z,28.62
2018-07-24T17:27:19.143Z,28.39
2018-07-24T17:29:48.177Z,28.62
2018-07-24T17:32:17.538Z,28.56
2018-07-24T17:34:46.628Z,28.40
2018-07-24T17:39:51.619Z,27.88
2018-07-24T17:42:20.664Z,27.98
2018-07-24T17:47:25.549Z,27.49
2018-07-24T17:49:54.603Z,27.36
2018-07-24T17:52:23.708Z,27.38
2018-07-24T17:54:53.110Z,27.17
2018-07-24T17:57:22.160Z,26.93
2018-07-24T17:59:51.298Z,26.85
2018-07-24T18:02:21.881Z,26.87
2018-07-24T18:04:54.029Z,26.71
2018-07-24T18:07:23.286Z,26.54
2018-07-24T18:12:28.611Z,26.52
2018-07-24T18:14:57.677Z,26.55
2018-07-24T18:17:26.732Z,26.26
2018-07-24T18:19:55.784Z,26.11
2018-07-24T18:25:01.685Z,26.02
2018-07-24T18:27:30.755Z,25.83
2018-07-24T18:29:59.803Z,25.52
2018-07-24T18:32:29.832Z,25.28
2018-07-24T18:34:59.079Z,25.13
2018-07-24T18:37:28.166Z,24.94
2018-07-24T18:39:57.245Z,24.82
2018-07-24T18:42:26.318Z,24.86
2018-07-24T18:44:56.466Z,24.61
2018-07-24T18:47:25.520Z,24.64
2018-07-24T18:49:54.588Z,24.34
2018-07-24T18:52:23.656Z,24.10
2018-07-24T18:54:54.661Z,23.92
2018-07-24T18:57:23.809Z,23.94
2018-07-24T18:59:53.051Z,23.78
2018-07-24T19:02:23.090Z,23.90
2018-07-24T19:07:28.024Z,23.57
2018-07-24T19:09:59.085Z,23.25
2018-07-24T19:15:03.982Z,22.85
2018-07-24T19:17:33.039Z,22.66
2018-07-24T19:20:04.109Z,22.42
2018-07-24T19:22:33.189Z,22.13
2018-07-24T19:27:38.052Z,21.97
2018-07-24T19:30:08.043Z,21.73
2018-07-24T19:32:37.129Z,21.49
2018-07-24T19:35:08.197Z,21.33
2018-07-24T19:40:13.077Z,21.20
2018-07-24T19:42:42.144Z,21.25
2018-07-24T19:45:15.130Z,21.15
2018-07-24T19:47:48.831Z,20.93
2018-07-24T19:50:17.905Z,20.88
2018-07-24T19:52:46.998Z,20.68
2018-07-24T19:55:16.054Z,20.57
2018-07-24T20:00:20.904Z,20.49
2018-07-24T20:05:25.661Z,20.39
2018-07-24T20:07:55.703Z,20.18
2018-07-24T20:10:27.841Z,20.18
2018-07-24T20:15:32.715Z,20.29
2018-07-24T20:18:01.786Z,20.23
2018-07-24T20:25:44.431Z,20.19
2018-07-24T20:28:13.534Z,20.07
2018-07-24T20:30:43.557Z,19.73
2018-07-24T20:35:48.432Z,19.63
2018-07-24T20:38:26.749Z,19.55
2018-07-24T20:40:57.774Z,19.38
2018-07-24T20:43:26.849Z,19.28
2018-07-24T20:45:55.913Z,19.30
2018-07-24T20:48:24.965Z,19.25
2018-07-24T20:56:07.717Z,19.27
2018-07-24T21:03:48.470Z,19.42
2018-07-24T21:08:54.281Z,19.21
2018-07-24T21:11:23.347Z,19.25
2018-07-24T21:13:52.421Z,19.04
2018-07-24T21:16:21.479Z,18.91
2018-07-24T21:18:50.552Z,18.79
2018-07-24T21:21:19.634Z,18.67
2018-07-24T21:23:48.695Z,18.58
2018-07-24T21:28:53.590Z,18.60
2018-07-24T21:31:23.643Z,18.56
2018-07-24T21:33:53.665Z,18.59
2018-07-24T21:36:23.718Z,18.58
2018-07-24T21:38:52.787Z,18.58
2018-07-24T21:41:21.886Z,18.54
2018-07-24T21:43:51.897Z,18.52
2018-07-24T21:46:21.076Z,18.42
2018-07-24T21:48:50.360Z,18.21
2018-07-24T21:51:20.325Z,18.10
2018-07-24T21:53:50.352Z,17.91
2018-07-24T21:56:19.409Z,17.92
2018-07-24T21:58:48.486Z,17.92
2018-07-24T22:01:18.473Z,17.96
2018-07-24T22:03:48.492Z,17.83
2018-07-24T22:06:22.202Z,17.82
2018-07-24T22:08:52.265Z,17.72
2018-07-24T22:11:21.282Z,17.86
2018-07-24T22:13:52.265Z,17.95
2018-07-24T22:16:23.313Z,17.99
2018-07-24T22:18:52.391Z,18.01
2018-07-24T22:21:21.436Z,18.07
2018-07-24T22:23:50.503Z,18.10
2018-07-24T22:26:20.554Z,18.05
2018-07-24T22:28:49.615Z,18.02
2018-07-24T22:31:18.673Z,17.78
2018-07-24T22:33:47.733Z,17.58
2018-07-24T22:36:16.854Z,17.72
2018-07-24T22:38:45.928Z,17.74
2018-07-24T22:41:16.965Z,17.75
2018-07-24T22:43:46.996Z,17.81
2018-07-24T22:46:19.869Z,17.77
2018-07-24T22:48:50.920Z,17.80
2018-07-24T22:51:19.983Z,17.75
2018-07-24T22:53:49.045Z,17.71
2018-07-24T23:01:29.745Z,17.69
2018-07-24T23:03:58.861Z,17.56
2018-07-24T23:09:03.698Z,17.35
2018-07-24T23:11:34.707Z,17.34
2018-07-24T23:14:03.795Z,17.20
2018-07-24T23:16:33.837Z,17.14
2018-07-24T23:19:02.902Z,17.15
2018-07-24T23:21:33.981Z,17.07
2018-07-24T23:24:03.056Z,17.12
2018-07-24T23:26:34.127Z,17.06
2018-07-24T23:29:03.195Z,17.05
2018-07-24T23:31:32.414Z,16.94
2018-07-24T23:36:37.213Z,16.89
2018-07-24T23:39:06.292Z,16.93
2018-07-24T23:41:35.509Z,16.80
2018-07-24T23:46:40.356Z,16.93
2018-07-24T23:51:45.222Z,17.07
2018-07-24T23:54:14.275Z,17.01
